Pennsylvania Furnace, Pennsylvania
Current Conditions -  °F | °C
As of 5:15 AM on Saturday 25 Oct 2014 (Local Time) from KUNV Reporting Station
Broken Clouds Broken Clouds  
Wind Chill: 44°   Ceiling: 4800
Heat Index: 47°   Visibility: 10mi
Dew Point: 38°   Wind: 6mph
Humidity: 71%   Direction: 270°W
Pressure: 29.93"   Gusts: NA
Location:  40.71°N, 78°W
Report Text: KUNV 250915Z AUTO 27005KT 10SM BKN048 08/03 A2993 RMK AO2 T00840034
Loading
Personal Weather Stations






























Interactive Weather Map
Tropical Storm Tracking
New forecast layout! Learn more

10-Day Weather Forecast

Advertisements
Track Severe Weather on mobile